sensor_id;sensor_type;location;lat;lon;timestamp;temperature;humidity
19172;DHT22;9718;52.200;21.052;2022-07-29T00:01:03;13.40;99.90
19172;DHT22;9718;52.200;21.052;2022-07-29T00:03:30;13.40;99.90
19172;DHT22;9718;52.200;21.052;2022-07-29T00:05:57;13.40;99.90
19172;DHT22;9718;52.200;21.052;2022-07-29T00:08:26;13.40;99.90
19172;DHT22;9718;52.200;21.052;2022-07-29T00:10:53;13.50;99.90
19172;DHT22;9718;52.200;21.052;2022-07-29T00:13:20;13.50;99.90
19172;DHT22;9718;52.200;21.052;2022-07-29T00:15:58;13.50;99.90
19172;DHT22;9718;52.200;21.052;2022-07-29T00:18:31;13.60;99.90
19172;DHT22;9718;52.200;21.052;2022-07-29T00:20:58;13.60;99.90
19172;DHT22;9718;52.200;21.052;2022-07-29T00:23:25;13.50;99.90
19172;DHT22;9718;52.200;21.052;2022-07-29T00:25:52;13.50;99.90
19172;DHT22;9718;52.200;21.052;2022-07-29T00:28:19;13.40;99.90
19172;DHT22;9718;52.200;21.052;2022-07-29T00:30:47;13.30;99.90
19172;DHT22;9718;52.200;21.052;2022-07-29T00:33:14;13.30;99.90
19172;DHT22;9718;52.200;21.052;2022-07-29T00:35:41;13.10;99.90
19172;DHT22;9718;52.200;21.052;2022-07-29T00:38:16;13.10;99.90
19172;DHT22;9718;52.200;21.052;2022-07-29T00:40:44;13.10;99.90
19172;DHT22;9718;52.200;21.052;2022-07-29T00:43:12;13.10;99.90
19172;DHT22;9718;52.200;21.052;2022-07-29T00:45:41;13.10;99.90
19172;DHT22;9718;52.200;21.052;2022-07-29T00:48:08;13.10;99.90
19172;DHT22;9718;52.200;21.052;2022-07-29T00:50:36;13.10;99.90
19172;DHT22;9718;52.200;21.052;2022-07-29T00:53:05;13.10;99.90
19172;DHT22;9718;52.200;21.052;2022-07-29T00:55:33;13.00;99.90
19172;DHT22;9718;52.200;21.052;2022-07-29T00:58:00;12.90;99.90
19172;DHT22;9718;52.200;21.052;2022-07-29T01:00:28;12.80;99.90
19172;DHT22;9718;52.200;21.052;2022-07-29T01:02:56;12.80;99.90
19172;DHT22;9718;52.200;21.052;2022-07-29T01:05:24;12.80;99.90
19172;DHT22;9718;52.200;21.052;2022-07-29T01:08:14;12.80;99.90
19172;DHT22;9718;52.200;21.052;2022-07-29T01:10:44;12.90;99.90
19172;DHT22;9718;52.200;21.052;2022-07-29T01:13:14;13.00;99.90
19172;DHT22;9718;52.200;21.052;2022-07-29T01:15:49;13.30;99.90
19172;DHT22;9718;52.200;21.052;2022-07-29T01:18:24;13.60;99.90
19172;DHT22;9718;52.200;21.052;2022-07-29T01:21:15;13.80;99.90
19172;DHT22;9718;52.200;21.052;2022-07-29T01:27:05;14.20;99.90
19172;DHT22;9718;52.200;21.052;2022-07-29T01:29:51;14.40;99.90
19172;DHT22;9718;52.200;21.052;2022-07-29T01:32:28;14.60;99.90
19172;DHT22;9718;52.200;21.052;2022-07-29T01:37:38;14.70;99.90
19172;DHT22;9718;52.200;21.052;2022-07-29T01:40:18;14.80;99.90
19172;DHT22;9718;52.200;21.052;2022-07-29T01:42:50;14.80;99.90
19172;DHT22;9718;52.200;21.052;2022-07-29T01:45:41;14.80;99.90
19172;DHT22;9718;52.200;21.052;2022-07-29T01:50:47;14.80;99.90
19172;DHT22;9718;52.200;21.052;2022-07-29T01:53:25;14.90;99.90
19172;DHT22;9718;52.200;21.052;2022-07-29T01:56:03;15.00;99.90
19172;DHT22;9718;52.200;21.052;2022-07-29T01:58:31;15.00;99.90
19172;DHT22;9718;52.200;21.052;2022-07-29T02:01:00;15.00;99.90
19172;DHT22;9718;52.200;21.052;2022-07-29T02:03:29;14.90;99.90
19172;DHT22;9718;52.200;21.052;2022-07-29T02:06:00;14.80;99.90
19172;DHT22;9718;52.200;21.052;2022-07-29T02:08:29;14.80;99.90
19172;DHT22;9718;52.200;21.052;2022-07-29T02:10:57;14.90;99.90
19172;DHT22;9718;52.200;21.052;2022-07-29T02:13:27;15.00;99.90
19172;DHT22;9718;52.200;21.052;2022-07-29T02:15:57;15.00;99.90
19172;DHT22;9718;52.200;21.052;2022-07-29T02:18:27;15.00;99.90
19172;DHT22;9718;52.200;21.052;2022-07-29T02:20:55;15.10;99.90
19172;DHT22;9718;52.200;21.052;2022-07-29T02:23:24;15.00;99.90
19172;DHT22;9718;52.200;21.052;2022-07-29T02:25:53;15.00;99.90
19172;DHT22;9718;52.200;21.052;2022-07-29T02:28:26;14.90;99.90
19172;DHT22;9718;52.200;21.052;2022-07-29T02:30:58;14.70;99.90
19172;DHT22;9718;52.200;21.052;2022-07-29T02:33:28;14.70;99.90
19172;DHT22;9718;52.200;21.052;2022-07-29T02:35:56;14.60;99.90
19172;DHT22;9718;52.200;21.052;2022-07-29T02:38:25;14.50;99.90
19172;DHT22;9718;52.200;21.052;2022-07-29T02:41:33;14.50;99.90
19172;DHT22;9718;52.200;21.052;2022-07-29T02:44:06;14.40;99.90
19172;DHT22;9718;52.200;21.052;2022-07-29T02:46:37;14.30;99.90
19172;DHT22;9718;52.200;21.052;2022-07-29T02:52:15;14.20;99.90
19172;DHT22;9718;52.200;21.052;2022-07-29T02:57:32;14.10;99.90
19172;DHT22;9718;52.200;21.052;2022-07-29T03:00:05;14.10;99.90
19172;DHT22;9718;52.200;21.052;2022-07-29T03:02:38;14.00;99.90
19172;DHT22;9718;52.200;21.052;2022-07-29T03:05:08;14.00;99.90
19172;DHT22;9718;52.200;21.052;2022-07-29T03:07:37;14.00;99.90
19172;DHT22;9718;52.200;21.052;2022-07-29T03:10:06;13.90;99.90
19172;DHT22;9718;52.200;21.052;2022-07-29T03:12:40;13.70;99.90
19172;DHT22;9718;52.200;21.052;2022-07-29T03:15:08;13.60;99.90
19172;DHT22;9718;52.200;21.052;2022-07-29T03:17:36;13.60;99.90
19172;DHT22;9718;52.200;21.052;2022-07-29T03:20:06;13.60;99.90
19172;DHT22;9718;52.200;21.052;2022-07-29T03:22:36;13.70;99.90
19172;DHT22;9718;52.200;21.052;2022-07-29T03:25:12;13.80;99.90
19172;DHT22;9718;52.200;21.052;2022-07-29T03:27:40;13.80;99.90
19172;DHT22;9718;52.200;21.052;2022-07-29T03:30:08;13.90;99.90
19172;DHT22;9718;52.200;21.052;2022-07-29T03:32:35;13.80;99.90
19172;DHT22;9718;52.200;21.052;2022-07-29T03:35:04;13.90;99.90
19172;DHT22;9718;52.200;21.052;2022-07-29T03:37:32;13.90;99.90
19172;DHT22;9718;52.200;21.052;2022-07-29T03:40:02;13.90;99.90
19172;DHT22;9718;52.200;21.052;2022-07-29T03:42:32;14.00;99.90
19172;DHT22;9718;52.200;21.052;2022-07-29T03:45:05;14.10;99.90
19172;DHT22;9718;52.200;21.052;2022-07-29T03:47:35;14.20;99.90
19172;DHT22;9718;52.200;21.052;2022-07-29T03:50:20;14.20;99.90
19172;DHT22;9718;52.200;21.052;2022-07-29T03:52:48;14.30;99.90
19172;DHT22;9718;52.200;21.052;2022-07-29T03:55:16;14.30;99.90
19172;DHT22;9718;52.200;21.052;2022-07-29T03:57:44;14.40;99.90
19172;DHT22;9718;52.200;21.052;2022-07-29T04:00:13;14.50;99.90
19172;DHT22;9718;52.200;21.052;2022-07-29T04:02:43;14.50;99.90
19172;DHT22;9718;52.200;21.052;2022-07-29T04:05:17;14.60;99.90
19172;DHT22;9718;52.200;21.052;2022-07-29T04:07:48;14.70;99.90
19172;DHT22;9718;52.200;21.052;2022-07-29T04:10:16;14.70;99.90
19172;DHT22;9718;52.200;21.052;2022-07-29T04:12:58;14.80;99.90
19172;DHT22;9718;52.200;21.052;2022-07-29T04:15:25;14.90;99.90
19172;DHT22;9718;52.200;21.052;2022-07-29T04:17:58;14.90;99.90
19172;DHT22;9718;52.200;21.052;2022-07-29T04:20:25;15.00;99.90
19172;DHT22;9718;52.200;21.052;2022-07-29T04:22:52;15.10;99.90
19172;DHT22;9718;52.200;21.052;2022-07-29T04:25:19;15.20;99.90
19172;DHT22;9718;52.200;21.052;2022-07-29T04:27:46;15.20;99.90
19172;DHT22;9718;52.200;21.052;2022-07-29T04:30:30;15.30;99.90
19172;DHT22;9718;52.200;21.052;2022-07-29T04:32:58;15.40;99.90
19172;DHT22;9718;52.200;21.052;2022-07-29T04:35:25;15.50;99.90
19172;DHT22;9718;52.200;21.052;2022-07-29T04:37:52;15.60;99.90
19172;DHT22;9718;52.200;21.052;2022-07-29T04:40:19;15.70;99.90
19172;DHT22;9718;52.200;21.052;2022-07-29T04:42:47;15.70;99.90
19172;DHT22;9718;52.200;21.052;2022-07-29T04:45:15;15.90;99.90
19172;DHT22;9718;52.200;21.052;2022-07-29T04:47:48;15.90;99.90
19172;DHT22;9718;52.200;21.052;2022-07-29T04:50:15;16.20;99.90
19172;DHT22;9718;52.200;21.052;2022-07-29T04:52:43;16.30;99.90
19172;DHT22;9718;52.200;21.052;2022-07-29T04:55:10;16.40;99.90
19172;DHT22;9718;52.200;21.052;2022-07-29T04:57:37;16.50;99.90
19172;DHT22;9718;52.200;21.052;2022-07-29T05:00:06;16.50;99.90
19172;DHT22;9718;52.200;21.052;2022-07-29T05:02:33;16.70;99.90
19172;DHT22;9718;52.200;21.052;2022-07-29T05:05:00;16.80;99.90
19172;DHT22;9718;52.200;21.052;2022-07-29T05:07:27;16.90;99.90
19172;DHT22;9718;52.200;21.052;2022-07-29T05:09:54;16.90;99.90
19172;DHT22;9718;52.200;21.052;2022-07-29T05:12:24;17.00;99.90
19172;DHT22;9718;52.200;21.052;2022-07-29T05:14:51;17.00;99.90
19172;DHT22;9718;52.200;21.052;2022-07-29T05:17:18;17.10;99.90
19172;DHT22;9718;52.200;21.052;2022-07-29T05:19:45;17.20;99.90
19172;DHT22;9718;52.200;21.052;2022-07-29T05:22:12;17.30;99.90
19172;DHT22;9718;52.200;21.052;2022-07-29T05:24:39;17.30;99.90
19172;DHT22;9718;52.200;21.052;2022-07-29T05:27:07;17.50;99.90
19172;DHT22;9718;52.200;21.052;2022-07-29T05:29:34;17.60;99.90
19172;DHT22;9718;52.200;21.052;2022-07-29T05:32:12;17.70;99.90
19172;DHT22;9718;52.200;21.052;2022-07-29T05:34:40;17.80;99.90
19172;DHT22;9718;52.200;21.052;2022-07-29T05:37:19;18.00;99.90
19172;DHT22;9718;52.200;21.052;2022-07-29T05:39:46;18.20;99.90
19172;DHT22;9718;52.200;21.052;2022-07-29T05:42:22;18.40;99.90
19172;DHT22;9718;52.200;21.052;2022-07-29T05:44:49;18.60;99.90
19172;DHT22;9718;52.200;21.052;2022-07-29T05:47:16;18.90;99.90
19172;DHT22;9718;52.200;21.052;2022-07-29T05:49:43;19.20;99.90
19172;DHT22;9718;52.200;21.052;2022-07-29T05:52:10;19.30;99.90
19172;DHT22;9718;52.200;21.052;2022-07-29T05:54:37;19.40;99.90
19172;DHT22;9718;52.200;21.052;2022-07-29T05:57:05;19.40;99.90
19172;DHT22;9718;52.200;21.052;2022-07-29T05:59:38;19.40;99.90
19172;DHT22;9718;52.200;21.052;2022-07-29T06:02:05;19.50;99.90
19172;DHT22;9718;52.200;21.052;2022-07-29T06:04:32;19.70;99.90
19172;DHT22;9718;52.200;21.052;2022-07-29T06:07:00;19.70;99.90
19172;DHT22;9718;52.200;21.052;2022-07-29T06:09:28;19.60;99.90
19172;DHT22;9718;52.200;21.052;2022-07-29T06:11:55;19.80;99.90
19172;DHT22;9718;52.200;21.052;2022-07-29T06:14:24;20.10;99.90
19172;DHT22;9718;52.200;21.052;2022-07-29T06:16:51;20.20;99.90
19172;DHT22;9718;52.200;21.052;2022-07-29T06:19:18;20.20;99.90
19172;DHT22;9718;52.200;21.052;2022-07-29T06:21:46;20.50;99.90
19172;DHT22;9718;52.200;21.052;2022-07-29T06:24:14;20.80;99.90
19172;DHT22;9718;52.200;21.052;2022-07-29T06:26:42;21.00;99.90
19172;DHT22;9718;52.200;21.052;2022-07-29T06:29:10;21.10;99.90
19172;DHT22;9718;52.200;21.052;2022-07-29T06:31:37;20.90;99.90
19172;DHT22;9718;52.200;21.052;2022-07-29T06:34:05;20.90;99.90
19172;DHT22;9718;52.200;21.052;2022-07-29T06:36:36;21.10;99.90
19172;DHT22;9718;52.200;21.052;2022-07-29T06:39:06;21.20;99.90
19172;DHT22;9718;52.200;21.052;2022-07-29T06:41:34;21.50;99.90
19172;DHT22;9718;52.200;21.052;2022-07-29T06:44:02;21.70;99.90
19172;DHT22;9718;52.200;21.052;2022-07-29T06:46:29;21.90;99.90
19172;DHT22;9718;52.200;21.052;2022-07-29T06:48:57;22.10;99.90
19172;DHT22;9718;52.200;21.052;2022-07-29T06:51:24;22.20;99.90
19172;DHT22;9718;52.200;21.052;2022-07-29T06:53:52;22.30;99.90
19172;DHT22;9718;52.200;21.052;2022-07-29T06:56:30;22.60;99.90
19172;DHT22;9718;52.200;21.052;2022-07-29T06:59:05;22.80;99.90
19172;DHT22;9718;52.200;21.052;2022-07-29T07:01:34;22.80;99.90
19172;DHT22;9718;52.200;21.052;2022-07-29T07:04:01;22.90;99.90
19172;DHT22;9718;52.200;21.052;2022-07-29T07:06:28;22.70;99.90
19172;DHT22;9718;52.200;21.052;2022-07-29T07:08:56;22.70;99.90
19172;DHT22;9718;52.200;21.052;2022-07-29T07:11:23;22.90;99.90
19172;DHT22;9718;52.200;21.052;2022-07-29T07:13:50;23.40;99.90
19172;DHT22;9718;52.200;21.052;2022-07-29T07:16:17;23.70;99.90
19172;DHT22;9718;52.200;21.052;2022-07-29T07:18:44;24.00;99.90
19172;DHT22;9718;52.200;21.052;2022-07-29T07:21:12;24.00;99.90
19172;DHT22;9718;52.200;21.052;2022-07-29T07:23:46;24.00;99.90
19172;DHT22;9718;52.200;21.052;2022-07-29T07:26:13;24.00;99.90
19172;DHT22;9718;52.200;21.052;2022-07-29T07:28:40;24.10;99.90
19172;DHT22;9718;52.200;21.052;2022-07-29T07:31:08;24.30;99.90
19172;DHT22;9718;52.200;21.052;2022-07-29T07:33:36;24.30;99.90
19172;DHT22;9718;52.200;21.052;2022-07-29T07:36:03;24.60;99.90
19172;DHT22;9718;52.200;21.052;2022-07-29T07:38:30;24.70;99.90
19172;DHT22;9718;52.200;21.052;2022-07-29T07:40:58;24.70;99.90
19172;DHT22;9718;52.200;21.052;2022-07-29T07:43:25;24.80;99.90
19172;DHT22;9718;52.200;21.052;2022-07-29T07:45:52;24.80;99.90
19172;DHT22;9718;52.200;21.052;2022-07-29T07:48:19;25.00;99.90
19172;DHT22;9718;52.200;21.052;2022-07-29T07:50:46;25.40;99.90
19172;DHT22;9718;52.200;21.052;2022-07-29T07:53:13;25.60;99.90
19172;DHT22;9718;52.200;21.052;2022-07-29T07:55:42;25.80;99.90
19172;DHT22;9718;52.200;21.052;2022-07-29T07:58:29;25.70;99.90
19172;DHT22;9718;52.200;21.052;2022-07-29T08:00:56;25.60;99.90
19172;DHT22;9718;52.200;21.052;2022-07-29T08:03:23;25.70;99.90
19172;DHT22;9718;52.200;21.052;2022-07-29T08:05:50;25.80;99.90
19172;DHT22;9718;52.200;21.052;2022-07-29T08:08:18;26.00;99.90
19172;DHT22;9718;52.200;21.052;2022-07-29T08:10:45;26.00;99.90
19172;DHT22;9718;52.200;21.052;2022-07-29T08:13:20;26.00;99.90
19172;DHT22;9718;52.200;21.052;2022-07-29T08:15:49;26.00;99.90
19172;DHT22;9718;52.200;21.052;2022-07-29T08:18:28;26.00;99.90
19172;DHT22;9718;52.200;21.052;2022-07-29T08:20:55;26.10;99.90
19172;DHT22;9718;52.200;21.052;2022-07-29T08:23:22;26.10;99.90
19172;DHT22;9718;52.200;21.052;2022-07-29T08:25:51;26.10;99.90
19172;DHT22;9718;52.200;21.052;2022-07-29T08:28:20;26.00;99.90
19172;DHT22;9718;52.200;21.052;2022-07-29T08:30:52;26.00;99.90
19172;DHT22;9718;52.200;21.052;2022-07-29T08:33:21;26.20;99.90
19172;DHT22;9718;52.200;21.052;2022-07-29T08:35:48;26.20;99.90
19172;DHT22;9718;52.200;21.052;2022-07-29T08:38:17;26.10;99.90
19172;DHT22;9718;52.200;21.052;2022-07-29T08:40:45;26.20;99.90
19172;DHT22;9718;52.200;21.052;2022-07-29T08:43:12;26.20;99.90
19172;DHT22;9718;52.200;21.052;2022-07-29T08:45:45;26.00;99.90
19172;DHT22;9718;52.200;21.052;2022-07-29T08:48:17;25.80;99.90
19172;DHT22;9718;52.200;21.052;2022-07-29T08:50:46;26.00;99.90
19172;DHT22;9718;52.200;21.052;2022-07-29T08:53:16;26.10;99.90
19172;DHT22;9718;52.200;21.052;2022-07-29T08:55:45;25.80;99.90
19172;DHT22;9718;52.200;21.052;2022-07-29T08:58:13;25.80;99.90
19172;DHT22;9718;52.200;21.052;2022-07-29T09:00:45;26.00;99.90
19172;DHT22;9718;52.200;21.052;2022-07-29T09:03:18;25.90;99.90
19172;DHT22;9718;52.200;21.052;2022-07-29T09:05:47;25.40;99.90
19172;DHT22;9718;52.200;21.052;2022-07-29T09:08:16;25.20;99.90
19172;DHT22;9718;52.200;21.052;2022-07-29T09:10:44;25.00;99.90
19172;DHT22;9718;52.200;21.052;2022-07-29T09:13:11;24.90;99.90
19172;DHT22;9718;52.200;21.052;2022-07-29T09:15:38;25.30;99.90
19172;DHT22;9718;52.200;21.052;2022-07-29T09:18:05;25.60;99.90
19172;DHT22;9718;52.200;21.052;2022-07-29T09:20:32;25.40;99.90
19172;DHT22;9718;52.200;21.052;2022-07-29T09:23:18;25.30;99.90
19172;DHT22;9718;52.200;21.052;2022-07-29T09:25:50;25.20;99.90
19172;DHT22;9718;52.200;21.052;2022-07-29T09:28:17;25.50;99.90
19172;DHT22;9718;52.200;21.052;2022-07-29T09:30:52;25.70;99.90
19172;DHT22;9718;52.200;21.052;2022-07-29T09:33:24;26.00;99.90
19172;DHT22;9718;52.200;21.052;2022-07-29T09:38:35;25.80;99.90
19172;DHT22;9718;52.200;21.052;2022-07-29T09:41:04;25.40;99.90
19172;DHT22;9718;52.200;21.052;2022-07-29T09:43:33;25.50;99.90
19172;DHT22;9718;52.200;21.052;2022-07-29T09:46:11;26.20;99.90
19172;DHT22;9718;52.200;21.052;2022-07-29T09:48:39;26.60;99.90
19172;DHT22;9718;52.200;21.052;2022-07-29T09:51:26;26.80;99.90
19172;DHT22;9718;52.200;21.052;2022-07-29T09:54:22;26.70;99.90
19172;DHT22;9718;52.200;21.052;2022-07-29T09:57:09;26.20;99.90
19172;DHT22;9718;52.200;21.052;2022-07-29T10:00:19;25.70;99.90
19172;DHT22;9718;52.200;21.052;2022-07-29T10:03:01;25.60;99.90
19172;DHT22;9718;52.200;21.052;2022-07-29T10:08:46;25.10;99.90
19172;DHT22;9718;52.200;21.052;2022-07-29T10:11:28;24.90;99.90
19172;DHT22;9718;52.200;21.052;2022-07-29T10:14:31;24.90;99.90
19172;DHT22;9718;52.200;21.052;2022-07-29T10:17:34;24.90;99.90
19172;DHT22;9718;52.200;21.052;2022-07-29T10:20:23;25.20;99.90
19172;DHT22;9718;52.200;21.052;2022-07-29T10:23:05;25.40;99.90
19172;DHT22;9718;52.200;21.052;2022-07-29T10:25:47;25.40;99.90
19172;DHT22;9718;52.200;21.052;2022-07-29T10:28:49;25.30;99.90
19172;DHT22;9718;52.200;21.052;2022-07-29T10:41:24;26.40;99.90
19172;DHT22;9718;52.200;21.052;2022-07-29T10:44:25;26.50;99.90
19172;DHT22;9718;52.200;21.052;2022-07-29T10:47:26;26.70;99.90
19172;DHT22;9718;52.200;21.052;2022-07-29T10:50:08;26.90;99.90
19172;DHT22;9718;52.200;21.052;2022-07-29T10:53:17;26.70;99.90
19172;DHT22;9718;52.200;21.052;2022-07-29T10:56:01;26.80;99.90
19172;DHT22;9718;52.200;21.052;2022-07-29T11:05:53;26.10;99.90
19172;DHT22;9718;52.200;21.052;2022-07-29T11:08:36;26.00;99.90
19172;DHT22;9718;52.200;21.052;2022-07-29T11:14:10;25.20;99.90
19172;DHT22;9718;52.200;21.052;2022-07-29T11:17:19;24.90;99.90
19172;DHT22;9718;52.200;21.052;2022-07-29T11:23:28;25.00;99.90
19172;DHT22;9718;52.200;21.052;2022-07-29T11:26:17;25.30;99.90
19172;DHT22;9718;52.200;21.052;2022-07-29T11:29:38;25.40;99.90
19172;DHT22;9718;52.200;21.052;2022-07-29T11:32:24;25.90;99.90
19172;DHT22;9718;52.200;21.052;2022-07-29T11:35:12;26.10;99.90
19172;DHT22;9718;52.200;21.052;2022-07-29T11:41:28;26.10;99.90
19172;DHT22;9718;52.200;21.052;2022-07-29T11:44:13;25.90;99.90
19172;DHT22;9718;52.200;21.052;2022-07-29T11:46:58;25.80;99.90
19172;DHT22;9718;52.200;21.052;2022-07-29T11:49:44;26.00;99.90
19172;DHT22;9718;52.200;21.052;2022-07-29T11:52:39;26.30;99.90
19172;DHT22;9718;52.200;21.052;2022-07-29T11:55:54;27.00;99.90
19172;DHT22;9718;52.200;21.052;2022-07-29T11:58:39;27.60;99.90
19172;DHT22;9718;52.200;21.052;2022-07-29T12:01:21;27.90;99.90
19172;DHT22;9718;52.200;21.052;2022-07-29T12:04:28;27.80;99.90
19172;DHT22;9718;52.200;21.052;2022-07-29T12:07:10;27.80;99.90
19172;DHT22;9718;52.200;21.052;2022-07-29T12:09:56;27.90;99.90
19172;DHT22;9718;52.200;21.052;2022-07-29T12:12:38;27.70;99.90
19172;DHT22;9718;52.200;21.052;2022-07-29T12:15:41;27.40;99.90
19172;DHT22;9718;52.200;21.052;2022-07-29T12:18:27;26.90;99.90
19172;DHT22;9718;52.200;21.052;2022-07-29T12:21:09;26.80;99.90
19172;DHT22;9718;52.200;21.052;2022-07-29T12:23:54;27.10;99.90
19172;DHT22;9718;52.200;21.052;2022-07-29T12:27:08;27.40;99.90
19172;DHT22;9718;52.200;21.052;2022-07-29T12:29:56;27.80;99.90
19172;DHT22;9718;52.200;21.052;2022-07-29T12:32:44;28.10;99.90
19172;DHT22;9718;52.200;21.052;2022-07-29T12:35:26;28.00;99.90
19172;DHT22;9718;52.200;21.052;2022-07-29T12:38:28;27.40;99.90
19172;DHT22;9718;52.200;21.052;2022-07-29T12:41:10;26.90;99.90
19172;DHT22;9718;52.200;21.052;2022-07-29T12:43:55;26.40;99.90
19172;DHT22;9718;52.200;21.052;2022-07-29T12:46:37;26.20;99.90
19172;DHT22;9718;52.200;21.052;2022-07-29T12:49:42;26.00;99.90
19172;DHT22;9718;52.200;21.052;2022-07-29T12:52:32;26.00;99.90
19172;DHT22;9718;52.200;21.052;2022-07-29T12:55:14;26.10;99.90
19172;DHT22;9718;52.200;21.052;2022-07-29T12:57:56;26.40;99.90
19172;DHT22;9718;52.200;21.052;2022-07-29T13:03:58;26.40;99.90
19172;DHT22;9718;52.200;21.052;2022-07-29T13:06:43;26.40;99.90
19172;DHT22;9718;52.200;21.052;2022-07-29T13:09:44;26.30;99.90
19172;DHT22;9718;52.200;21.052;2022-07-29T13:13:01;26.70;99.90
19172;DHT22;9718;52.200;21.052;2022-07-29T13:15:44;26.90;99.90
19172;DHT22;9718;52.200;21.052;2022-07-29T13:18:34;27.20;99.90
19172;DHT22;9718;52.200;21.052;2022-07-29T13:21:19;27.40;99.90
19172;DHT22;9718;52.200;21.052;2022-07-29T13:24:20;27.80;99.90
19172;DHT22;9718;52.200;21.052;2022-07-29T13:27:02;28.30;99.90
19172;DHT22;9718;52.200;21.052;2022-07-29T13:29:46;28.10;99.90
19172;DHT22;9718;52.200;21.052;2022-07-29T13:32:29;27.70;99.90
19172;DHT22;9718;52.200;21.052;2022-07-29T13:35:31;27.50;99.90
19172;DHT22;9718;52.200;21.052;2022-07-29T13:38:13;27.10;99.90
19172;DHT22;9718;52.200;21.052;2022-07-29T13:40:55;26.80;99.90
19172;DHT22;9718;52.200;21.052;2022-07-29T13:43:37;26.70;99.90
19172;DHT22;9718;52.200;21.052;2022-07-29T13:46:38;26.70;99.90
19172;DHT22;9718;52.200;21.052;2022-07-29T13:49:20;26.50;99.90
19172;DHT22;9718;52.200;21.052;2022-07-29T13:52:03;26.40;99.90
19172;DHT22;9718;52.200;21.052;2022-07-29T13:54:45;25.80;99.90
19172;DHT22;9718;52.200;21.052;2022-07-29T13:57:47;25.50;99.90
19172;DHT22;9718;52.200;21.052;2022-07-29T14:00:29;25.60;99.90
19172;DHT22;9718;52.200;21.052;2022-07-29T14:03:11;25.90;99.90
19172;DHT22;9718;52.200;21.052;2022-07-29T14:05:53;26.20;99.90
19172;DHT22;9718;52.200;21.052;2022-07-29T14:08:54;26.60;99.90
19172;DHT22;9718;52.200;21.052;2022-07-29T14:11:38;26.30;99.90
19172;DHT22;9718;52.200;21.052;2022-07-29T14:14:20;26.20;99.90
19172;DHT22;9718;52.200;21.052;2022-07-29T14:17:02;26.00;99.90
19172;DHT22;9718;52.200;21.052;2022-07-29T14:20:05;26.00;99.90
19172;DHT22;9718;52.200;21.052;2022-07-29T14:22:46;25.40;99.90
19172;DHT22;9718;52.200;21.052;2022-07-29T14:25:28;25.40;99.90
19172;DHT22;9718;52.200;21.052;2022-07-29T14:28:10;25.40;99.90
19172;DHT22;9718;52.200;21.052;2022-07-29T14:31:15;25.30;99.90
19172;DHT22;9718;52.200;21.052;2022-07-29T14:33:57;25.40;99.90
19172;DHT22;9718;52.200;21.052;2022-07-29T14:36:43;25.60;99.90
19172;DHT22;9718;52.200;21.052;2022-07-29T14:39:25;25.70;99.90
19172;DHT22;9718;52.200;21.052;2022-07-29T14:42:32;25.60;99.90
19172;DHT22;9718;52.200;21.052;2022-07-29T14:45:14;25.40;99.90
19172;DHT22;9718;52.200;21.052;2022-07-29T14:47:56;25.00;99.90
19172;DHT22;9718;52.200;21.052;2022-07-29T14:50:38;25.00;99.90
19172;DHT22;9718;52.200;21.052;2022-07-29T14:53:40;25.00;99.90
19172;DHT22;9718;52.200;21.052;2022-07-29T14:56:22;24.90;99.90
19172;DHT22;9718;52.200;21.052;2022-07-29T14:59:25;24.70;99.90
19172;DHT22;9718;52.200;21.052;2022-07-29T15:02:07;24.60;99.90
19172;DHT22;9718;52.200;21.052;2022-07-29T15:05:09;24.50;99.90
19172;DHT22;9718;52.200;21.052;2022-07-29T15:07:51;24.80;99.90
19172;DHT22;9718;52.200;21.052;2022-07-29T15:10:32;25.00;99.90
19172;DHT22;9718;52.200;21.052;2022-07-29T15:13:14;25.10;99.90
19172;DHT22;9718;52.200;21.052;2022-07-29T15:16:16;25.10;99.90
19172;DHT22;9718;52.200;21.052;2022-07-29T15:18:58;25.10;99.90
19172;DHT22;9718;52.200;21.052;2022-07-29T15:21:42;24.90;99.90
19172;DHT22;9718;52.200;21.052;2022-07-29T15:24:29;25.00;99.90
19172;DHT22;9718;52.200;21.052;2022-07-29T15:27:31;25.10;99.90
19172;DHT22;9718;52.200;21.052;2022-07-29T15:30:13;25.20;99.90
19172;DHT22;9718;52.200;21.052;2022-07-29T15:33:14;25.00;99.90
19172;DHT22;9718;52.200;21.052;2022-07-29T15:35:58;25.00;99.90
19172;DHT22;9718;52.200;21.052;2022-07-29T15:39:02;25.10;99.90
19172;DHT22;9718;52.200;21.052;2022-07-29T15:41:44;25.10;99.90
19172;DHT22;9718;52.200;21.052;2022-07-29T15:44:26;25.00;99.90
19172;DHT22;9718;52.200;21.052;2022-07-29T15:47:08;25.00;99.90
19172;DHT22;9718;52.200;21.052;2022-07-29T15:50:10;25.00;99.90
19172;DHT22;9718;52.200;21.052;2022-07-29T15:52:56;25.10;99.90
19172;DHT22;9718;52.200;21.052;2022-07-29T15:55:38;24.80;99.90
19172;DHT22;9718;52.200;21.052;2022-07-29T15:58:20;24.80;99.90
19172;DHT22;9718;52.200;21.052;2022-07-29T16:01:21;24.70;99.90
19172;DHT22;9718;52.200;21.052;2022-07-29T16:04:03;24.70;99.90
19172;DHT22;9718;52.200;21.052;2022-07-29T16:06:46;24.40;99.90
19172;DHT22;9718;52.200;21.052;2022-07-29T16:09:28;24.30;99.90
19172;DHT22;9718;52.200;21.052;2022-07-29T16:12:29;24.10;99.90
19172;DHT22;9718;52.200;21.052;2022-07-29T16:15:11;24.00;99.90
19172;DHT22;9718;52.200;21.052;2022-07-29T16:17:53;23.90;99.90
19172;DHT22;9718;52.200;21.052;2022-07-29T16:20:36;23.80;99.90
19172;DHT22;9718;52.200;21.052;2022-07-29T16:23:38;23.70;99.90
19172;DHT22;9718;52.200;21.052;2022-07-29T16:26:20;23.80;99.90
19172;DHT22;9718;52.200;21.052;2022-07-29T16:29:02;23.70;99.90
19172;DHT22;9718;52.200;21.052;2022-07-29T16:31:44;23.70;99.90
19172;DHT22;9718;52.200;21.052;2022-07-29T16:34:46;23.60;99.90
19172;DHT22;9718;52.200;21.052;2022-07-29T16:37:28;23.70;99.90
19172;DHT22;9718;52.200;21.052;2022-07-29T16:40:17;23.80;99.90
19172;DHT22;9718;52.200;21.052;2022-07-29T16:42:59;23.70;99.90
19172;DHT22;9718;52.200;21.052;2022-07-29T16:46:01;23.70;99.90
19172;DHT22;9718;52.200;21.052;2022-07-29T16:48:43;23.60;99.90
19172;DHT22;9718;52.200;21.052;2022-07-29T16:51:25;23.50;99.90
19172;DHT22;9718;52.200;21.052;2022-07-29T16:54:07;23.50;99.90
19172;DHT22;9718;52.200;21.052;2022-07-29T16:57:11;23.50;99.90
19172;DHT22;9718;52.200;21.052;2022-07-29T16:59:52;23.50;99.90
19172;DHT22;9718;52.200;21.052;2022-07-29T17:02:34;23.40;99.90
19172;DHT22;9718;52.200;21.052;2022-07-29T17:05:19;23.40;99.90
19172;DHT22;9718;52.200;21.052;2022-07-29T17:08:21;23.40;99.90
19172;DHT22;9718;52.200;21.052;2022-07-29T17:11:03;23.40;99.90
19172;DHT22;9718;52.200;21.052;2022-07-29T17:13:45;23.40;99.90
19172;DHT22;9718;52.200;21.052;2022-07-29T17:16:27;23.30;99.90
19172;DHT22;9718;52.200;21.052;2022-07-29T17:19:30;23.40;99.90
19172;DHT22;9718;52.200;21.052;2022-07-29T17:22:12;23.40;99.90
19172;DHT22;9718;52.200;21.052;2022-07-29T17:25:00;23.30;99.90